sensor_id;sensor_type;location;lat;lon;timestamp;temperature;humidity
70145;DHT22;57510;51.068;3.872;2022-11-20T00:00:11;6.40;99.90
70145;DHT22;57510;51.068;3.872;2022-11-20T00:02:37;6.30;99.90
70145;DHT22;57510;51.068;3.872;2022-11-20T00:05:12;6.30;99.90
70145;DHT22;57510;51.068;3.872;2022-11-20T00:07:41;6.40;99.90
70145;DHT22;57510;51.068;3.872;2022-11-20T00:10:06;6.40;99.90
70145;DHT22;57510;51.068;3.872;2022-11-20T00:12:32;6.50;99.90
70145;DHT22;57510;51.068;3.872;2022-11-20T00:14:59;6.60;99.90
70145;DHT22;57510;51.068;3.872;2022-11-20T00:17:44;6.40;99.90
70145;DHT22;57510;51.068;3.872;2022-11-20T00:20:10;6.30;99.90
70145;DHT22;57510;51.068;3.872;2022-11-20T00:22:36;6.40;99.90
70145;DHT22;57510;51.068;3.872;2022-11-20T00:25:02;6.50;99.90
70145;DHT22;57510;51.068;3.872;2022-11-20T00:27:27;6.60;99.90
70145;DHT22;57510;51.068;3.872;2022-11-20T00:29:55;6.60;99.90
70145;DHT22;57510;51.068;3.872;2022-11-20T00:32:23;6.60;99.90
70145;DHT22;57510;51.068;3.872;2022-11-20T00:34:48;6.70;99.90
70145;DHT22;57510;51.068;3.872;2022-11-20T00:37:16;6.60;99.90
70145;DHT22;57510;51.068;3.872;2022-11-20T00:39:42;6.50;99.90
70145;DHT22;57510;51.068;3.872;2022-11-20T00:42:10;6.40;99.90
70145;DHT22;57510;51.068;3.872;2022-11-20T00:44:38;6.30;99.90
70145;DHT22;57510;51.068;3.872;2022-11-20T00:47:06;6.30;99.90
70145;DHT22;57510;51.068;3.872;2022-11-20T00:49:33;6.40;99.90
70145;DHT22;57510;51.068;3.872;2022-11-20T00:51:59;6.40;99.90
70145;DHT22;57510;51.068;3.872;2022-11-20T00:57:21;6.40;99.90
70145;DHT22;57510;51.068;3.872;2022-11-20T00:59:56;6.40;99.90
70145;DHT22;57510;51.068;3.872;2022-11-20T01:02:21;6.40;99.90
70145;DHT22;57510;51.068;3.872;2022-11-20T01:04:47;6.40;99.90
70145;DHT22;57510;51.068;3.872;2022-11-20T01:07:12;6.50;99.90
70145;DHT22;57510;51.068;3.872;2022-11-20T01:09:40;6.50;99.90
70145;DHT22;57510;51.068;3.872;2022-11-20T01:12:06;6.50;99.90
70145;DHT22;57510;51.068;3.872;2022-11-20T01:14:32;6.50;99.90
70145;DHT22;57510;51.068;3.872;2022-11-20T01:17:00;6.40;99.90
70145;DHT22;57510;51.068;3.872;2022-11-20T01:19:25;6.40;99.90
70145;DHT22;57510;51.068;3.872;2022-11-20T01:21:52;6.30;99.90
70145;DHT22;57510;51.068;3.872;2022-11-20T01:24:19;6.40;99.90
70145;DHT22;57510;51.068;3.872;2022-11-20T01:26:46;6.30;99.90
70145;DHT22;57510;51.068;3.872;2022-11-20T01:29:25;6.30;99.90
70145;DHT22;57510;51.068;3.872;2022-11-20T01:31:50;6.40;99.90
70145;DHT22;57510;51.068;3.872;2022-11-20T01:34:20;6.40;99.90
70145;DHT22;57510;51.068;3.872;2022-11-20T01:39:37;6.40;99.90
70145;DHT22;57510;51.068;3.872;2022-11-20T01:42:06;6.40;99.90
70145;DHT22;57510;51.068;3.872;2022-11-20T01:44:55;6.50;99.90
70145;DHT22;57510;51.068;3.872;2022-11-20T01:50:24;6.50;99.90
70145;DHT22;57510;51.068;3.872;2022-11-20T01:52:54;6.50;99.90
70145;DHT22;57510;51.068;3.872;2022-11-20T01:55:25;6.50;99.90
70145;DHT22;57510;51.068;3.872;2022-11-20T01:57:52;6.50;99.90
70145;DHT22;57510;51.068;3.872;2022-11-20T02:00:18;6.50;99.90
70145;DHT22;57510;51.068;3.872;2022-11-20T02:02:46;6.50;99.90
70145;DHT22;57510;51.068;3.872;2022-11-20T02:05:32;6.50;99.90
70145;DHT22;57510;51.068;3.872;2022-11-20T02:08:04;6.40;99.80
70145;DHT22;57510;51.068;3.872;2022-11-20T02:10:30;6.30;99.90
70145;DHT22;57510;51.068;3.872;2022-11-20T02:12:58;6.20;99.90
70145;DHT22;57510;51.068;3.872;2022-11-20T02:15:42;6.10;99.90
70145;DHT22;57510;51.068;3.872;2022-11-20T02:18:09;6.10;99.90
70145;DHT22;57510;51.068;3.872;2022-11-20T02:20:35;6.10;99.90
70145;DHT22;57510;51.068;3.872;2022-11-20T02:28:43;6.10;99.90
70145;DHT22;57510;51.068;3.872;2022-11-20T02:31:08;6.00;99.90
70145;DHT22;57510;51.068;3.872;2022-11-20T02:33:34;6.10;99.90
70145;DHT22;57510;51.068;3.872;2022-11-20T02:35:59;6.10;99.90
70145;DHT22;57510;51.068;3.872;2022-11-20T02:38:25;6.00;99.90
70145;DHT22;57510;51.068;3.872;2022-11-20T02:40:51;6.00;99.90
70145;DHT22;57510;51.068;3.872;2022-11-20T02:43:16;6.00;99.90
70145;DHT22;57510;51.068;3.872;2022-11-20T02:45:42;6.10;99.90
70145;DHT22;57510;51.068;3.872;2022-11-20T02:48:10;5.90;99.90
70145;DHT22;57510;51.068;3.872;2022-11-20T02:50:36;5.90;99.90
70145;DHT22;57510;51.068;3.872;2022-11-20T02:53:05;5.90;99.90
70145;DHT22;57510;51.068;3.872;2022-11-20T02:55:31;5.90;99.90
70145;DHT22;57510;51.068;3.872;2022-11-20T02:57:56;6.00;99.90
70145;DHT22;57510;51.068;3.872;2022-11-20T03:00:25;6.00;99.90
70145;DHT22;57510;51.068;3.872;2022-11-20T03:02:53;6.20;99.90
70145;DHT22;57510;51.068;3.872;2022-11-20T03:05:19;6.10;99.90
70145;DHT22;57510;51.068;3.872;2022-11-20T03:07:44;6.20;99.90
70145;DHT22;57510;51.068;3.872;2022-11-20T03:10:10;6.10;99.90
70145;DHT22;57510;51.068;3.872;2022-11-20T03:12:35;6.20;99.90
70145;DHT22;57510;51.068;3.872;2022-11-20T03:15:01;6.20;99.90
70145;DHT22;57510;51.068;3.872;2022-11-20T03:17:29;6.30;99.90
70145;DHT22;57510;51.068;3.872;2022-11-20T03:19:57;6.30;99.90
70145;DHT22;57510;51.068;3.872;2022-11-20T03:22:22;6.30;99.90
70145;DHT22;57510;51.068;3.872;2022-11-20T03:24:52;6.30;99.90
70145;DHT22;57510;51.068;3.872;2022-11-20T03:27:18;6.40;99.90
70145;DHT22;57510;51.068;3.872;2022-11-20T03:29:44;6.40;99.90
70145;DHT22;57510;51.068;3.872;2022-11-20T03:32:15;6.50;99.90
70145;DHT22;57510;51.068;3.872;2022-11-20T03:34:42;6.50;99.90
70145;DHT22;57510;51.068;3.872;2022-11-20T03:37:08;6.50;99.90
70145;DHT22;57510;51.068;3.872;2022-11-20T03:39:33;6.40;99.90
70145;DHT22;57510;51.068;3.872;2022-11-20T03:41:59;6.40;99.90
70145;DHT22;57510;51.068;3.872;2022-11-20T03:44:26;6.40;99.90
70145;DHT22;57510;51.068;3.872;2022-11-20T03:46:52;6.30;99.90
70145;DHT22;57510;51.068;3.872;2022-11-20T03:49:20;6.40;99.90
70145;DHT22;57510;51.068;3.872;2022-11-20T03:51:48;6.30;99.90
70145;DHT22;57510;51.068;3.872;2022-11-20T03:54:16;6.30;99.90
70145;DHT22;57510;51.068;3.872;2022-11-20T03:56:42;6.40;99.90
70145;DHT22;57510;51.068;3.872;2022-11-20T03:59:09;6.40;99.90
70145;DHT22;57510;51.068;3.872;2022-11-20T04:01:38;6.40;99.90
70145;DHT22;57510;51.068;3.872;2022-11-20T04:04:05;6.40;99.90
70145;DHT22;57510;51.068;3.872;2022-11-20T04:06:35;6.30;99.90
70145;DHT22;57510;51.068;3.872;2022-11-20T04:09:01;6.40;99.90
70145;DHT22;57510;51.068;3.872;2022-11-20T04:11:27;6.40;99.90
70145;DHT22;57510;51.068;3.872;2022-11-20T04:13:54;6.40;99.90
70145;DHT22;57510;51.068;3.872;2022-11-20T04:16:21;6.40;99.90
70145;DHT22;57510;51.068;3.872;2022-11-20T04:19:04;6.40;99.90
70145;DHT22;57510;51.068;3.872;2022-11-20T04:21:34;6.20;99.90
70145;DHT22;57510;51.068;3.872;2022-11-20T04:24:17;6.10;99.90
70145;DHT22;57510;51.068;3.872;2022-11-20T04:26:43;6.20;99.90
70145;DHT22;57510;51.068;3.872;2022-11-20T04:29:27;6.30;99.90
70145;DHT22;57510;51.068;3.872;2022-11-20T04:31:55;6.40;99.90
70145;DHT22;57510;51.068;3.872;2022-11-20T04:34:21;6.40;99.90
70145;DHT22;57510;51.068;3.872;2022-11-20T04:36:47;6.40;99.90
70145;DHT22;57510;51.068;3.872;2022-11-20T04:39:13;6.40;99.90
70145;DHT22;57510;51.068;3.872;2022-11-20T04:41:45;6.40;99.90
70145;DHT22;57510;51.068;3.872;2022-11-20T04:44:10;6.40;99.90
70145;DHT22;57510;51.068;3.872;2022-11-20T04:46:39;6.50;99.90
70145;DHT22;57510;51.068;3.872;2022-11-20T04:51:49;6.60;99.90
70145;DHT22;57510;51.068;3.872;2022-11-20T04:54:14;6.40;99.90
70145;DHT22;57510;51.068;3.872;2022-11-20T04:56:42;6.30;99.90
70145;DHT22;57510;51.068;3.872;2022-11-20T04:59:08;6.10;99.90
70145;DHT22;57510;51.068;3.872;2022-11-20T05:01:36;6.00;99.90
70145;DHT22;57510;51.068;3.872;2022-11-20T05:04:04;5.90;99.90
70145;DHT22;57510;51.068;3.872;2022-11-20T05:06:31;5.90;99.90
70145;DHT22;57510;51.068;3.872;2022-11-20T05:08:57;5.60;99.90
70145;DHT22;57510;51.068;3.872;2022-11-20T05:11:22;5.60;99.90
70145;DHT22;57510;51.068;3.872;2022-11-20T05:13:49;5.70;99.90
70145;DHT22;57510;51.068;3.872;2022-11-20T05:16:16;5.60;99.90
70145;DHT22;57510;51.068;3.872;2022-11-20T05:19:03;5.60;99.90
70145;DHT22;57510;51.068;3.872;2022-11-20T05:21:32;5.60;99.90
70145;DHT22;57510;51.068;3.872;2022-11-20T05:23:58;5.60;99.90
70145;DHT22;57510;51.068;3.872;2022-11-20T05:26:24;5.70;99.90
70145;DHT22;57510;51.068;3.872;2022-11-20T05:28:50;5.80;99.90
70145;DHT22;57510;51.068;3.872;2022-11-20T05:31:16;5.70;99.90
70145;DHT22;57510;51.068;3.872;2022-11-20T05:33:43;5.60;99.90
70145;DHT22;57510;51.068;3.872;2022-11-20T05:36:09;5.60;99.90
70145;DHT22;57510;51.068;3.872;2022-11-20T05:38:35;5.70;99.90
70145;DHT22;57510;51.068;3.872;2022-11-20T05:41:11;5.60;99.90
70145;DHT22;57510;51.068;3.872;2022-11-20T05:43:37;5.60;99.90
70145;DHT22;57510;51.068;3.872;2022-11-20T05:46:05;5.60;99.90
70145;DHT22;57510;51.068;3.872;2022-11-20T05:48:31;5.70;99.90
70145;DHT22;57510;51.068;3.872;2022-11-20T05:50:57;5.70;99.90
70145;DHT22;57510;51.068;3.872;2022-11-20T05:53:23;5.70;99.90
70145;DHT22;57510;51.068;3.872;2022-11-20T05:55:56;5.80;99.90
70145;DHT22;57510;51.068;3.872;2022-11-20T05:58:21;5.90;99.90
70145;DHT22;57510;51.068;3.872;2022-11-20T06:00:47;6.00;99.90
70145;DHT22;57510;51.068;3.872;2022-11-20T06:03:13;6.10;99.90
70145;DHT22;57510;51.068;3.872;2022-11-20T06:05:39;6.10;99.90
70145;DHT22;57510;51.068;3.872;2022-11-20T06:08:06;6.10;99.90
70145;DHT22;57510;51.068;3.872;2022-11-20T06:10:34;6.20;99.90
70145;DHT22;57510;51.068;3.872;2022-11-20T06:13:00;6.30;99.90
70145;DHT22;57510;51.068;3.872;2022-11-20T06:15:25;6.30;99.90
70145;DHT22;57510;51.068;3.872;2022-11-20T06:17:52;6.40;99.90
70145;DHT22;57510;51.068;3.872;2022-11-20T06:20:17;6.40;99.90
70145;DHT22;57510;51.068;3.872;2022-11-20T06:22:43;6.50;99.90
70145;DHT22;57510;51.068;3.872;2022-11-20T06:25:13;6.60;99.90
70145;DHT22;57510;51.068;3.872;2022-11-20T06:27:39;6.60;99.90
70145;DHT22;57510;51.068;3.872;2022-11-20T06:30:08;6.50;99.90
70145;DHT22;57510;51.068;3.872;2022-11-20T06:32:34;6.50;99.90
70145;DHT22;57510;51.068;3.872;2022-11-20T06:35:00;6.50;99.90
70145;DHT22;57510;51.068;3.872;2022-11-20T06:37:25;6.50;99.90
70145;DHT22;57510;51.068;3.872;2022-11-20T06:39:57;6.40;99.90
70145;DHT22;57510;51.068;3.872;2022-11-20T06:44:55;6.60;99.90
70145;DHT22;57510;51.068;3.872;2022-11-20T06:47:26;6.60;99.90
70145;DHT22;57510;51.068;3.872;2022-11-20T06:49:57;6.50;99.90
70145;DHT22;57510;51.068;3.872;2022-11-20T06:52:22;6.50;99.90
70145;DHT22;57510;51.068;3.872;2022-11-20T06:54:48;6.50;99.90
70145;DHT22;57510;51.068;3.872;2022-11-20T06:57:14;6.60;99.90
70145;DHT22;57510;51.068;3.872;2022-11-20T06:59:40;6.60;99.90
70145;DHT22;57510;51.068;3.872;2022-11-20T07:02:08;6.70;99.90
70145;DHT22;57510;51.068;3.872;2022-11-20T07:04:34;6.70;99.90
70145;DHT22;57510;51.068;3.872;2022-11-20T07:06:59;6.60;99.90
70145;DHT22;57510;51.068;3.872;2022-11-20T07:09:25;6.60;99.90
70145;DHT22;57510;51.068;3.872;2022-11-20T07:11:51;6.60;99.90
70145;DHT22;57510;51.068;3.872;2022-11-20T07:14:16;6.60;99.90
70145;DHT22;57510;51.068;3.872;2022-11-20T07:16:45;6.60;99.90
70145;DHT22;57510;51.068;3.872;2022-11-20T07:19:10;6.70;99.90
70145;DHT22;57510;51.068;3.872;2022-11-20T07:21:36;6.70;99.90
70145;DHT22;57510;51.068;3.872;2022-11-20T07:24:02;6.70;99.90
70145;DHT22;57510;51.068;3.872;2022-11-20T07:26:28;6.70;99.90
70145;DHT22;57510;51.068;3.872;2022-11-20T07:28:58;6.70;99.90
70145;DHT22;57510;51.068;3.872;2022-11-20T07:31:27;6.60;99.90
70145;DHT22;57510;51.068;3.872;2022-11-20T07:33:52;6.60;99.90
70145;DHT22;57510;51.068;3.872;2022-11-20T07:36:20;6.60;99.90
70145;DHT22;57510;51.068;3.872;2022-11-20T07:38:45;6.60;99.90
70145;DHT22;57510;51.068;3.872;2022-11-20T07:41:11;6.70;99.90
70145;DHT22;57510;51.068;3.872;2022-11-20T07:43:37;6.80;99.90
70145;DHT22;57510;51.068;3.872;2022-11-20T07:46:03;6.80;99.90
70145;DHT22;57510;51.068;3.872;2022-11-20T07:48:31;6.80;99.90
70145;DHT22;57510;51.068;3.872;2022-11-20T07:50:59;6.80;99.90
70145;DHT22;57510;51.068;3.872;2022-11-20T07:53:33;6.80;99.90
70145;DHT22;57510;51.068;3.872;2022-11-20T07:55:59;6.80;99.90
70145;DHT22;57510;51.068;3.872;2022-11-20T07:58:28;6.90;99.90
70145;DHT22;57510;51.068;3.872;2022-11-20T08:00:54;6.90;99.90
70145;DHT22;57510;51.068;3.872;2022-11-20T08:03:25;6.80;99.90
70145;DHT22;57510;51.068;3.872;2022-11-20T08:05:53;6.70;99.90
70145;DHT22;57510;51.068;3.872;2022-11-20T08:08:19;6.80;99.90
70145;DHT22;57510;51.068;3.872;2022-11-20T08:10:45;6.70;99.90
70145;DHT22;57510;51.068;3.872;2022-11-20T08:13:11;6.80;99.90
70145;DHT22;57510;51.068;3.872;2022-11-20T08:15:56;6.80;99.90
70145;DHT22;57510;51.068;3.872;2022-11-20T08:18:24;6.90;99.90
70145;DHT22;57510;51.068;3.872;2022-11-20T08:20:52;7.00;99.90
70145;DHT22;57510;51.068;3.872;2022-11-20T08:23:18;7.00;99.90
70145;DHT22;57510;51.068;3.872;2022-11-20T08:25:48;7.00;99.90
70145;DHT22;57510;51.068;3.872;2022-11-20T08:28:14;7.10;99.90
70145;DHT22;57510;51.068;3.872;2022-11-20T08:30:40;7.10;99.90
70145;DHT22;57510;51.068;3.872;2022-11-20T08:33:08;7.20;99.90
70145;DHT22;57510;51.068;3.872;2022-11-20T08:35:35;7.20;99.90
70145;DHT22;57510;51.068;3.872;2022-11-20T08:38:01;7.10;99.90
70145;DHT22;57510;51.068;3.872;2022-11-20T08:40:27;7.00;99.90
70145;DHT22;57510;51.068;3.872;2022-11-20T08:42:53;7.00;99.90
70145;DHT22;57510;51.068;3.872;2022-11-20T08:45:18;7.00;99.90
70145;DHT22;57510;51.068;3.872;2022-11-20T08:47:44;7.10;99.90
70145;DHT22;57510;51.068;3.872;2022-11-20T08:50:11;7.10;99.90
70145;DHT22;57510;51.068;3.872;2022-11-20T08:52:38;7.20;99.90
70145;DHT22;57510;51.068;3.872;2022-11-20T08:55:04;7.30;99.90
70145;DHT22;57510;51.068;3.872;2022-11-20T08:57:36;7.30;99.90
70145;DHT22;57510;51.068;3.872;2022-11-20T09:00:03;7.30;99.90
70145;DHT22;57510;51.068;3.872;2022-11-20T09:02:29;7.20;99.90
70145;DHT22;57510;51.068;3.872;2022-11-20T09:04:54;7.20;99.90
70145;DHT22;57510;51.068;3.872;2022-11-20T09:07:20;7.30;99.90
70145;DHT22;57510;51.068;3.872;2022-11-20T09:09:46;7.40;99.90
70145;DHT22;57510;51.068;3.872;2022-11-20T09:12:15;7.40;99.90
70145;DHT22;57510;51.068;3.872;2022-11-20T09:14:40;7.40;99.90
70145;DHT22;57510;51.068;3.872;2022-11-20T09:17:09;7.50;99.90
70145;DHT22;57510;51.068;3.872;2022-11-20T09:19:41;7.60;99.90
70145;DHT22;57510;51.068;3.872;2022-11-20T09:22:09;7.60;99.90
70145;DHT22;57510;51.068;3.872;2022-11-20T09:24:35;7.70;99.90
70145;DHT22;57510;51.068;3.872;2022-11-20T09:27:01;7.60;99.90
70145;DHT22;57510;51.068;3.872;2022-11-20T09:29:27;7.70;99.90
70145;DHT22;57510;51.068;3.872;2022-11-20T09:31:53;7.70;99.90
70145;DHT22;57510;51.068;3.872;2022-11-20T09:34:19;7.60;99.90
70145;DHT22;57510;51.068;3.872;2022-11-20T09:36:47;7.60;99.90
70145;DHT22;57510;51.068;3.872;2022-11-20T09:55:10;8.20;99.90
70145;DHT22;57510;51.068;3.872;2022-11-20T09:57:40;8.30;99.90
70145;DHT22;57510;51.068;3.872;2022-11-20T10:00:10;8.50;99.90
70145;DHT22;57510;51.068;3.872;2022-11-20T10:02:42;8.60;99.90
70145;DHT22;57510;51.068;3.872;2022-11-20T10:05:12;8.70;99.90
70145;DHT22;57510;51.068;3.872;2022-11-20T10:10:21;8.60;99.90
70145;DHT22;57510;51.068;3.872;2022-11-20T10:18:46;8.80;99.90
70145;DHT22;57510;51.068;3.872;2022-11-20T10:21:27;8.90;99.90
70145;DHT22;57510;51.068;3.872;2022-11-20T10:29:13;9.20;99.90
70145;DHT22;57510;51.068;3.872;2022-11-20T10:31:54;9.20;99.90
70145;DHT22;57510;51.068;3.872;2022-11-20T10:34:26;9.20;99.90
70145;DHT22;57510;51.068;3.872;2022-11-20T10:37:02;9.30;99.90
70145;DHT22;57510;51.068;3.872;2022-11-20T10:39:42;9.40;99.90
70145;DHT22;57510;51.068;3.872;2022-11-20T10:42:08;9.50;99.90
70145;DHT22;57510;51.068;3.872;2022-11-20T10:44:36;9.60;99.90
70145;DHT22;57510;51.068;3.872;2022-11-20T10:47:20;9.80;99.90
70145;DHT22;57510;51.068;3.872;2022-11-20T10:49:56;9.70;99.90
70145;DHT22;57510;51.068;3.872;2022-11-20T10:54:56;10.00;99.90
70145;DHT22;57510;51.068;3.872;2022-11-20T11:00:24;10.20;99.90
70145;DHT22;57510;51.068;3.872;2022-11-20T11:02:50;10.50;99.90
70145;DHT22;57510;51.068;3.872;2022-11-20T11:07:41;10.50;99.90
70145;DHT22;57510;51.068;3.872;2022-11-20T11:13:05;10.30;99.90
70145;DHT22;57510;51.068;3.872;2022-11-20T11:15:37;10.20;99.90
70145;DHT22;57510;51.068;3.872;2022-11-20T11:18:03;10.10;99.90
70145;DHT22;57510;51.068;3.872;2022-11-20T11:20:29;10.20;99.90
70145;DHT22;57510;51.068;3.872;2022-11-20T11:22:55;10.20;99.90
70145;DHT22;57510;51.068;3.872;2022-11-20T11:25:26;10.20;99.90
70145;DHT22;57510;51.068;3.872;2022-11-20T11:27:57;10.30;99.90
70145;DHT22;57510;51.068;3.872;2022-11-20T11:30:23;10.40;99.90
70145;DHT22;57510;51.068;3.872;2022-11-20T11:33:01;10.50;99.90
70145;DHT22;57510;51.068;3.872;2022-11-20T11:38:14;10.30;99.80
70145;DHT22;57510;51.068;3.872;2022-11-20T11:40:43;10.20;99.90
70145;DHT22;57510;51.068;3.872;2022-11-20T11:43:22;10.10;99.70
70145;DHT22;57510;51.068;3.872;2022-11-20T11:51:39;10.20;99.90
70145;DHT22;57510;51.068;3.872;2022-11-20T11:54:50;10.20;99.90
70145;DHT22;57510;51.068;3.872;2022-11-20T11:56:55;10.10;99.90
70145;DHT22;57510;51.068;3.872;2022-11-20T11:59:28;10.10;99.90
70145;DHT22;57510;51.068;3.872;2022-11-20T12:02:01;10.00;99.90
70145;DHT22;57510;51.068;3.872;2022-11-20T12:07:08;9.70;99.90
70145;DHT22;57510;51.068;3.872;2022-11-20T12:09:39;9.60;99.90
70145;DHT22;57510;51.068;3.872;2022-11-20T12:12:13;9.70;99.90
70145;DHT22;57510;51.068;3.872;2022-11-20T12:14:45;9.60;99.90
70145;DHT22;57510;51.068;3.872;2022-11-20T12:17:12;9.50;99.90
70145;DHT22;57510;51.068;3.872;2022-11-20T12:19:39;9.40;99.90
70145;DHT22;57510;51.068;3.872;2022-11-20T12:27:24;9.40;99.90
70145;DHT22;57510;51.068;3.872;2022-11-20T12:35:38;9.50;99.90
70145;DHT22;57510;51.068;3.872;2022-11-20T12:41:12;9.30;99.90
70145;DHT22;57510;51.068;3.872;2022-11-20T12:44:10;9.20;99.90
70145;DHT22;57510;51.068;3.872;2022-11-20T12:47:10;9.20;99.90
70145;DHT22;57510;51.068;3.872;2022-11-20T12:57:24;9.30;99.90
70145;DHT22;57510;51.068;3.872;2022-11-20T12:59:57;9.30;99.90
70145;DHT22;57510;51.068;3.872;2022-11-20T13:02:33;9.40;99.90
70145;DHT22;57510;51.068;3.872;2022-11-20T13:07:29;9.20;99.90
70145;DHT22;57510;51.068;3.872;2022-11-20T13:09:55;9.20;99.90
70145;DHT22;57510;51.068;3.872;2022-11-20T13:17:30;9.00;99.90
70145;DHT22;57510;51.068;3.872;2022-11-20T13:19:59;9.00;99.90
70145;DHT22;57510;51.068;3.872;2022-11-20T13:22:29;9.00;99.90
70145;DHT22;57510;51.068;3.872;2022-11-20T13:24:57;9.10;99.90
70145;DHT22;57510;51.068;3.872;2022-11-20T13:27:23;9.10;99.90
70145;DHT22;57510;51.068;3.872;2022-11-20T13:30:12;9.00;99.90
70145;DHT22;57510;51.068;3.872;2022-11-20T13:32:47;9.10;99.90
70145;DHT22;57510;51.068;3.872;2022-11-20T13:35:13;9.10;99.90
70145;DHT22;57510;51.068;3.872;2022-11-20T13:37:48;9.10;99.90
70145;DHT22;57510;51.068;3.872;2022-11-20T13:40:24;9.10;99.90
70145;DHT22;57510;51.068;3.872;2022-11-20T13:44:34;9.20;99.90
70145;DHT22;57510;51.068;3.872;2022-11-20T13:47:01;9.30;99.90
70145;DHT22;57510;51.068;3.872;2022-11-20T13:49:38;9.40;99.90
70145;DHT22;57510;51.068;3.872;2022-11-20T14:00:33;9.30;99.90
70145;DHT22;57510;51.068;3.872;2022-11-20T14:03:20;9.40;99.90
70145;DHT22;57510;51.068;3.872;2022-11-20T14:05:54;9.40;99.90
70145;DHT22;57510;51.068;3.872;2022-11-20T14:08:29;9.30;99.90
70145;DHT22;57510;51.068;3.872;2022-11-20T14:11:28;9.40;99.90
70145;DHT22;57510;51.068;3.872;2022-11-20T14:16:37;9.40;99.90
70145;DHT22;57510;51.068;3.872;2022-11-20T14:21:49;9.50;99.90
70145;DHT22;57510;51.068;3.872;2022-11-20T14:24:21;9.50;99.90
70145;DHT22;57510;51.068;3.872;2022-11-20T14:26:49;9.70;99.90
70145;DHT22;57510;51.068;3.872;2022-11-20T14:29:21;9.70;99.90
70145;DHT22;57510;51.068;3.872;2022-11-20T14:31:48;9.90;99.90
70145;DHT22;57510;51.068;3.872;2022-11-20T14:34:20;10.00;99.90
70145;DHT22;57510;51.068;3.872;2022-11-20T14:36:47;10.00;99.90
70145;DHT22;57510;51.068;3.872;2022-11-20T14:39:34;10.20;99.90
70145;DHT22;57510;51.068;3.872;2022-11-20T14:42:01;10.30;99.90
70145;DHT22;57510;51.068;3.872;2022-11-20T14:44:30;10.50;99.90
70145;DHT22;57510;51.068;3.872;2022-11-20T14:47:00;10.60;99.90
70145;DHT22;57510;51.068;3.872;2022-11-20T14:49:29;10.50;99.90
70145;DHT22;57510;51.068;3.872;2022-11-20T14:52:10;10.60;99.90
70145;DHT22;57510;51.068;3.872;2022-11-20T14:54:44;10.60;99.90
70145;DHT22;57510;51.068;3.872;2022-11-20T14:57:31;10.70;99.90
70145;DHT22;57510;51.068;3.872;2022-11-20T15:02:42;10.60;99.90
70145;DHT22;57510;51.068;3.872;2022-11-20T15:05:08;10.60;99.90
70145;DHT22;57510;51.068;3.872;2022-11-20T15:07:40;10.70;99.90
70145;DHT22;57510;51.068;3.872;2022-11-20T15:10:13;10.80;99.90
70145;DHT22;57510;51.068;3.872;2022-11-20T15:12:53;10.70;99.90
70145;DHT22;57510;51.068;3.872;2022-11-20T15:18:14;10.60;99.90
70145;DHT22;57510;51.068;3.872;2022-11-20T15:20:41;10.40;99.90
70145;DHT22;57510;51.068;3.872;2022-11-20T15:23:13;10.50;99.90
70145;DHT22;57510;51.068;3.872;2022-11-20T15:25:40;10.50;99.90
70145;DHT22;57510;51.068;3.872;2022-11-20T15:28:19;10.30;99.90
70145;DHT22;57510;51.068;3.872;2022-11-20T15:30:47;10.50;99.90
70145;DHT22;57510;51.068;3.872;2022-11-20T15:33:14;10.70;99.90
70145;DHT22;57510;51.068;3.872;2022-11-20T15:35:41;10.80;99.90
70145;DHT22;57510;51.068;3.872;2022-11-20T15:38:06;10.80;99.90
70145;DHT22;57510;51.068;3.872;2022-11-20T15:40:32;10.70;99.90
70145;DHT22;57510;51.068;3.872;2022-11-20T15:43:00;10.80;99.90
70145;DHT22;57510;51.068;3.872;2022-11-20T15:45:34;10.70;99.90
70145;DHT22;57510;51.068;3.872;2022-11-20T15:48:05;10.60;99.90
70145;DHT22;57510;51.068;3.872;2022-11-20T15:50:58;10.50;99.90
70145;DHT22;57510;51.068;3.872;2022-11-20T15:53:28;10.40;99.90
70145;DHT22;57510;51.068;3.872;2022-11-20T15:55:53;10.40;99.90
70145;DHT22;57510;51.068;3.872;2022-11-20T15:58:19;10.40;99.90
70145;DHT22;57510;51.068;3.872;2022-11-20T16:00:45;10.30;99.90
70145;DHT22;57510;51.068;3.872;2022-11-20T16:03:13;10.10;99.90
70145;DHT22;57510;51.068;3.872;2022-11-20T16:05:38;10.10;99.90
70145;DHT22;57510;51.068;3.872;2022-11-20T16:08:04;10.10;99.90
70145;DHT22;57510;51.068;3.872;2022-11-20T16:10:31;10.00;99.90
70145;DHT22;57510;51.068;3.872;2022-11-20T16:12:56;10.10;99.90
70145;DHT22;57510;51.068;3.872;2022-11-20T16:15:50;10.10;99.90
70145;DHT22;57510;51.068;3.872;2022-11-20T16:18:19;10.00;99.90
70145;DHT22;57510;51.068;3.872;2022-11-20T16:20:51;10.00;99.90
70145;DHT22;57510;51.068;3.872;2022-11-20T16:23:18;10.00;99.90
70145;DHT22;57510;51.068;3.872;2022-11-20T16:25:44;10.00;99.90
70145;DHT22;57510;51.068;3.872;2022-11-20T16:28:10;10.00;99.90
70145;DHT22;57510;51.068;3.872;2022-11-20T16:30:40;10.20;99.40
70145;DHT22;57510;51.068;3.872;2022-11-20T16:33:26;10.20;99.30
70145;DHT22;57510;51.068;3.872;2022-11-20T16:39:09;10.10;99.90
70145;DHT22;57510;51.068;3.872;2022-11-20T16:41:37;10.20;99.90
70145;DHT22;57510;51.068;3.872;2022-11-20T16:44:07;10.10;99.90
70145;DHT22;57510;51.068;3.872;2022-11-20T16:46:33;10.10;99.90
70145;DHT22;57510;51.068;3.872;2022-11-20T16:49:03;9.90;99.90
70145;DHT22;57510;51.068;3.872;2022-11-20T16:51:31;9.70;99.90
70145;DHT22;57510;51.068;3.872;2022-11-20T16:53:57;9.40;99.90
70145;DHT22;57510;51.068;3.872;2022-11-20T16:56:29;9.30;99.90
70145;DHT22;57510;51.068;3.872;2022-11-20T16:59:01;9.20;99.90
70145;DHT22;57510;51.068;3.872;2022-11-20T17:01:30;9.10;99.90
70145;DHT22;57510;51.068;3.872;2022-11-20T17:03:57;9.10;99.90
70145;DHT22;57510;51.068;3.872;2022-11-20T17:06:25;9.00;99.90
70145;DHT22;57510;51.068;3.872;2022-11-20T17:08:53;8.90;99.90
70145;DHT22;57510;51.068;3.872;2022-11-20T17:11:19;8.90;99.90
70145;DHT22;57510;51.068;3.872;2022-11-20T17:13:48;8.90;99.90
70145;DHT22;57510;51.068;3.872;2022-11-20T17:16:18;8.90;99.90
70145;DHT22;57510;51.068;3.872;2022-11-20T17:18:44;8.80;99.90
70145;DHT22;57510;51.068;3.872;2022-11-20T17:21:10;8.80;99.90
70145;DHT22;57510;51.068;3.872;2022-11-20T17:23:39;8.80;99.90
70145;DHT22;57510;51.068;3.872;2022-11-20T17:26:11;8.90;99.90
70145;DHT22;57510;51.068;3.872;2022-11-20T17:28:43;9.00;99.90
70145;DHT22;57510;51.068;3.872;2022-11-20T17:31:14;9.10;99.90
70145;DHT22;57510;51.068;3.872;2022-11-20T17:33:44;9.00;99.90
70145;DHT22;57510;51.068;3.872;2022-11-20T17:36:15;9.00;99.90
70145;DHT22;57510;51.068;3.872;2022-11-20T17:38:43;9.00;99.90
70145;DHT22;57510;51.068;3.872;2022-11-20T17:41:15;9.10;99.90
70145;DHT22;57510;51.068;3.872;2022-11-20T17:43:42;9.10;99.90
70145;DHT22;57510;51.068;3.872;2022-11-20T17:46:16;9.20;99.90
70145;DHT22;57510;51.068;3.872;2022-11-20T17:48:43;9.20;99.90
70145;DHT22;57510;51.068;3.872;2022-11-20T17:51:19;9.20;99.90
70145;DHT22;57510;51.068;3.872;2022-11-20T17:53:47;9.30;99.90
70145;DHT22;57510;51.068;3.872;2022-11-20T17:56:13;9.30;99.90
70145;DHT22;57510;51.068;3.872;2022-11-20T17:58:58;9.30;99.90